createdAt,value
2018-09-03T00:01:45.219Z,6.75
2018-09-03T00:04:31.788Z,6.40
2018-09-03T00:07:00.260Z,6.40
2018-09-03T00:09:32.954Z,6.67
2018-09-03T00:12:01.388Z,7.12
2018-09-03T00:14:29.850Z,7.27
2018-09-03T00:16:58.287Z,6.65
2018-09-03T00:19:26.823Z,7.60
2018-09-03T00:21:55.257Z,7.30
2018-09-03T00:24:23.600Z,6.78
2018-09-03T00:26:52.077Z,7.12
2018-09-03T00:29:20.520Z,7.37
2018-09-03T00:32:51.748Z,7.62
2018-09-03T00:35:25.433Z,7.50
2018-09-03T00:38:00.161Z,7.53
2018-09-03T00:40:33.840Z,8.47
2018-09-03T00:43:07.693Z,8.07
2018-09-03T00:45:41.993Z,7.20
2018-09-03T00:48:10.403Z,6.63
2018-09-03T00:50:38.820Z,7.90
2018-09-03T00:53:07.196Z,9.43
2018-09-03T00:55:35.584Z,7.50
2018-09-03T00:58:04.030Z,8.00
2018-09-03T01:00:32.584Z,7.83
2018-09-03T01:03:01.040Z,7.53
2018-09-03T01:05:29.481Z,8.80
2018-09-03T01:07:58.440Z,7.80
2018-09-03T01:10:26.858Z,9.07
2018-09-03T01:12:55.331Z,8.33
2018-09-03T01:15:24.123Z,7.93
2018-09-03T01:17:52.633Z,9.13
2018-09-03T01:20:20.978Z,8.47
2018-09-03T01:22:49.474Z,9.20
2018-09-03T01:25:17.913Z,8.73
2018-09-03T01:27:47.465Z,10.07
2018-09-03T01:30:15.893Z,9.27
2018-09-03T01:32:44.404Z,9.83
2018-09-03T01:35:12.823Z,8.73
2018-09-03T01:37:41.202Z,9.28
2018-09-03T01:40:09.678Z,7.67
2018-09-03T01:42:38.140Z,10.20
2018-09-03T01:45:06.632Z,9.10
2018-09-03T01:47:35.279Z,8.60
2018-09-03T01:50:03.705Z,9.03
2018-09-03T01:52:32.116Z,9.20
2018-09-03T01:55:01.306Z,8.17
2018-09-03T01:57:30.555Z,10.28
2018-09-03T01:59:59.477Z,9.03
2018-09-03T02:02:27.881Z,9.03
2018-09-03T02:04:56.235Z,9.40
2018-09-03T02:07:24.667Z,10.43
2018-09-03T02:09:53.213Z,9.90
2018-09-03T02:12:21.613Z,10.20
2018-09-03T02:14:50.042Z,9.20
2018-09-03T02:17:18.493Z,9.70
2018-09-03T02:19:46.944Z,10.20
2018-09-03T02:22:15.329Z,9.87
2018-09-03T02:24:43.725Z,10.33
2018-09-03T02:27:12.127Z,10.57
2018-09-03T02:29:40.531Z,10.30
2018-09-03T02:32:09.546Z,10.37
2018-09-03T02:34:37.978Z,9.70
2018-09-03T02:37:06.405Z,10.85
2018-09-03T02:39:34.769Z,10.43
2018-09-03T02:42:03.185Z,9.50
2018-09-03T02:44:31.631Z,9.10
2018-09-03T02:47:00.087Z,9.53
2018-09-03T02:49:28.493Z,10.33
2018-09-03T02:51:56.915Z,9.07
2018-09-03T02:54:25.345Z,9.20
2018-09-03T02:56:53.791Z,10.50
2018-09-03T02:59:22.267Z,9.23
2018-09-03T03:01:50.897Z,9.13
2018-09-03T03:04:19.763Z,10.17
2018-09-03T03:06:48.690Z,9.53
2018-09-03T03:09:17.076Z,9.73
2018-09-03T03:11:45.592Z,9.85
2018-09-03T03:14:13.966Z,9.80
2018-09-03T03:16:47.084Z,9.60
2018-09-03T03:19:15.443Z,10.00
2018-09-03T03:21:43.890Z,8.73
2018-09-03T03:24:13.207Z,9.50
2018-09-03T03:26:41.568Z,8.97
2018-09-03T03:29:10.814Z,11.43
2018-09-03T03:31:39.232Z,9.10
2018-09-03T03:34:07.672Z,10.32
2018-09-03T03:36:36.052Z,9.70
2018-09-03T03:39:06.329Z,10.53
2018-09-03T03:41:34.762Z,10.65
2018-09-03T03:44:03.351Z,11.00
2018-09-03T03:46:31.847Z,10.10
2018-09-03T03:49:00.325Z,9.60
2018-09-03T03:51:28.772Z,9.40
2018-09-03T03:53:57.136Z,10.03
2018-09-03T03:56:25.592Z,10.40
2018-09-03T03:58:54.043Z,10.33
2018-09-03T04:01:22.420Z,10.30
2018-09-03T04:03:51.162Z,11.27
2018-09-03T04:06:19.564Z,11.57
2018-09-03T04:08:47.993Z,11.20
2018-09-03T04:11:16.387Z,12.30
2018-09-03T04:13:45.452Z,12.00
2018-09-03T04:16:13.866Z,10.60
2018-09-03T04:18:42.241Z,12.27
2018-09-03T04:21:11.373Z,10.30
2018-09-03T04:23:39.795Z,12.80
2018-09-03T04:26:08.229Z,11.83
2018-09-03T04:28:36.666Z,10.60
2018-09-03T04:31:05.327Z,12.37
2018-09-03T04:33:33.786Z,11.57
2018-09-03T04:36:03.129Z,11.03
2018-09-03T04:38:31.595Z,12.00
2018-09-03T04:41:00.040Z,12.30
2018-09-03T04:43:28.441Z,11.50
2018-09-03T04:45:56.884Z,11.73
2018-09-03T04:48:25.349Z,12.77
2018-09-03T04:50:54.317Z,13.03
2018-09-03T04:53:22.815Z,13.53
2018-09-03T04:55:51.275Z,13.48
2018-09-03T04:58:19.922Z,12.40
2018-09-03T05:00:48.442Z,13.30
2018-09-03T05:03:16.886Z,13.10
2018-09-03T05:05:49.137Z,13.55
2018-09-03T05:08:17.560Z,14.13
2018-09-03T05:10:45.941Z,11.73
2018-09-03T05:13:14.341Z,13.40
2018-09-03T05:15:42.880Z,12.23
2018-09-03T05:18:12.276Z,13.27
2018-09-03T05:20:40.737Z,13.20
2018-09-03T05:23:09.284Z,13.85
2018-09-03T05:25:37.676Z,13.33
2018-09-03T05:28:06.726Z,13.77
2018-09-03T05:30:35.209Z,14.00
2018-09-03T05:33:03.825Z,13.48
2018-09-03T05:35:33.766Z,13.67
2018-09-03T05:38:02.628Z,13.98
2018-09-03T05:40:37.577Z,13.40
2018-09-03T05:43:06.028Z,13.17
2018-09-03T05:45:34.527Z,13.32
2018-09-03T05:48:02.972Z,13.77
2018-09-03T05:50:31.475Z,15.40
2018-09-03T05:53:00.731Z,14.20
2018-09-03T05:55:29.211Z,14.37
2018-09-03T05:57:57.610Z,13.60
2018-09-03T06:00:26.060Z,13.37
2018-09-03T06:02:54.509Z,12.47
2018-09-03T06:05:23.042Z,13.53
2018-09-03T06:07:51.470Z,14.03
2018-09-03T06:10:19.890Z,12.93
2018-09-03T06:12:48.359Z,13.70
2018-09-03T06:15:16.822Z,14.40
2018-09-03T06:17:45.475Z,12.23
2018-09-03T06:20:13.814Z,12.50
2018-09-03T06:22:42.261Z,13.60
2018-09-03T06:25:11.240Z,13.23
2018-09-03T06:27:39.650Z,12.97
2018-09-03T06:30:08.249Z,13.37
2018-09-03T06:32:36.727Z,12.78
2018-09-03T06:35:05.139Z,12.53
2018-09-03T06:37:33.597Z,12.40
2018-09-03T06:40:02.052Z,14.07
2018-09-03T06:42:30.605Z,13.77
2018-09-03T06:44:59.031Z,14.07
2018-09-03T06:47:27.506Z,14.17
2018-09-03T06:49:56.130Z,14.00
2018-09-03T06:52:24.505Z,14.20
2018-09-03T06:54:53.142Z,13.50
2018-09-03T06:57:21.710Z,12.93
2018-09-03T06:59:51.065Z,14.80
2018-09-03T07:02:19.543Z,13.60
2018-09-03T07:04:47.931Z,13.80
2018-09-03T07:07:16.370Z,12.73
2018-09-03T07:09:44.806Z,15.40
2018-09-03T07:12:13.274Z,15.17
2018-09-03T07:14:41.708Z,15.60
2018-09-03T07:17:10.142Z,14.70
2018-09-03T07:19:38.803Z,15.30
2018-09-03T07:22:07.199Z,14.60
2018-09-03T07:24:35.641Z,15.10
2018-09-03T07:27:04.135Z,15.77
2018-09-03T07:29:32.608Z,16.20
2018-09-03T07:32:01.032Z,16.40
2018-09-03T07:34:29.482Z,15.70
2018-09-03T07:36:57.952Z,17.17
2018-09-03T07:39:26.393Z,16.23
2018-09-03T07:41:54.795Z,16.90
2018-09-03T07:44:23.205Z,16.10
2018-09-03T07:46:51.612Z,15.60
2018-09-03T07:49:20.019Z,15.73
2018-09-03T07:51:48.498Z,14.50
2018-09-03T07:54:16.947Z,14.80
2018-09-03T07:56:45.397Z,16.50
2018-09-03T07:59:13.824Z,16.40
2018-09-03T08:01:42.215Z,17.45
2018-09-03T08:04:10.606Z,15.70
2018-09-03T08:06:39.053Z,16.23
2018-09-03T08:09:09.201Z,15.98
2018-09-03T08:11:38.451Z,15.93
2018-09-03T08:14:06.837Z,14.07
2018-09-03T08:16:35.238Z,14.07
2018-09-03T08:19:03.672Z,15.83
2018-09-03T08:21:32.114Z,15.10
2018-09-03T08:24:00.572Z,15.23
2018-09-03T08:26:29.005Z,17.97
2018-09-03T08:28:57.420Z,15.20
2018-09-03T08:31:25.870Z,14.70
2018-09-03T08:33:54.320Z,15.20
2018-09-03T08:36:22.734Z,15.23
2018-09-03T08:38:51.259Z,14.63
2018-09-03T08:41:19.617Z,13.70
2018-09-03T08:43:47.982Z,13.77
2018-09-03T08:46:16.445Z,14.70
2018-09-03T08:48:44.970Z,13.90
2018-09-03T08:51:13.390Z,13.20
2018-09-03T08:53:41.942Z,13.47
2018-09-03T08:56:10.430Z,14.50
2018-09-03T08:58:38.945Z,13.80
2018-09-03T09:01:07.425Z,13.53
2018-09-03T09:03:41.524Z,14.80
2018-09-03T09:06:10.372Z,13.73
2018-09-03T09:08:38.868Z,13.20
2018-09-03T09:11:08.177Z,12.88
2018-09-03T09:13:36.617Z,12.20
2018-09-03T09:16:05.148Z,12.90
2018-09-03T09:18:33.613Z,12.98
2018-09-03T09:21:02.029Z,12.90
2018-09-03T09:23:30.767Z,12.88
2018-09-03T09:25:59.175Z,13.30
2018-09-03T09:28:27.570Z,12.55
2018-09-03T09:30:56.020Z,12.35
2018-09-03T09:33:24.458Z,13.27
2018-09-03T09:35:52.910Z,12.90
2018-09-03T09:38:21.535Z,12.53
2018-09-03T09:40:50.105Z,12.57
2018-09-03T09:43:18.579Z,12.67
2018-09-03T09:45:47.026Z,13.78
2018-09-03T09:48:15.456Z,12.87
2018-09-03T09:50:43.940Z,14.10
2018-09-03T09:53:12.311Z,13.97
2018-09-03T09:55:41.049Z,13.53
2018-09-03T09:58:09.504Z,13.23
2018-09-03T10:00:43.317Z,14.23
2018-09-03T10:03:11.962Z,14.05
2018-09-03T10:05:40.389Z,14.70
2018-09-03T10:08:09.769Z,12.97
2018-09-03T10:10:38.269Z,13.73
2018-09-03T10:13:06.655Z,15.33
2018-09-03T10:15:35.165Z,15.10
2018-09-03T10:18:03.680Z,15.30
2018-09-03T10:20:32.056Z,15.70
2018-09-03T10:23:00.477Z,14.20
2018-09-03T10:25:28.900Z,13.90
2018-09-03T10:27:57.364Z,13.00
2018-09-03T10:30:26.273Z,14.23
2018-09-03T10:32:54.812Z,13.70
2018-09-03T10:35:23.324Z,12.67
2018-09-03T10:37:51.767Z,12.57
2018-09-03T10:40:20.240Z,14.13
2018-09-03T10:42:48.680Z,13.87
2018-09-03T10:45:17.113Z,14.50
2018-09-03T10:47:45.535Z,13.87
2018-09-03T10:50:14.006Z,13.70
2018-09-03T10:52:42.723Z,14.17
2018-09-03T10:55:11.291Z,14.27
2018-09-03T10:57:40.014Z,14.50
2018-09-03T11:00:08.447Z,13.37
2018-09-03T11:02:36.869Z,15.70
2018-09-03T11:05:05.346Z,15.10
2018-09-03T11:07:33.887Z,13.77
2018-09-03T11:10:02.491Z,14.30
2018-09-03T11:12:31.116Z,14.30
2018-09-03T11:14:59.704Z,15.60
2018-09-03T11:17:28.184Z,16.23
2018-09-03T11:19:59.835Z,15.00
2018-09-03T11:22:28.302Z,16.23
2018-09-03T11:24:57.826Z,13.80
2018-09-03T11:27:26.301Z,15.80
2018-09-03T11:29:54.704Z,17.07
2018-09-03T11:32:23.138Z,16.30
2018-09-03T11:34:51.538Z,16.37
2018-09-03T11:37:20.289Z,15.37
2018-09-03T11:39:48.781Z,14.53
2018-09-03T11:42:17.187Z,15.90
2018-09-03T11:44:45.705Z,16.17
2018-09-03T11:47:14.191Z,16.43
2018-09-03T11:49:42.769Z,16.67
2018-09-03T11:52:11.255Z,15.60
2018-09-03T11:54:40.817Z,14.70
2018-09-03T11:57:09.261Z,16.57
2018-09-03T11:59:37.959Z,16.10
2018-09-03T12:02:06.893Z,15.20
2018-09-03T12:04:35.343Z,14.97
2018-09-03T12:07:03.873Z,13.93
2018-09-03T12:09:32.284Z,13.95
2018-09-03T12:12:00.732Z,13.90
2018-09-03T12:14:31.628Z,15.13
2018-09-03T12:17:00.532Z,15.90
2018-09-03T12:19:29.011Z,16.67
2018-09-03T12:21:57.599Z,18.00
2018-09-03T12:24:26.011Z,14.50
2018-09-03T12:26:54.505Z,13.60
2018-09-03T12:29:22.928Z,14.90
2018-09-03T12:31:51.348Z,15.30
2018-09-03T12:34:20.049Z,13.77
2018-09-03T12:36:48.483Z,14.53
2018-09-03T12:39:16.929Z,14.43
2018-09-03T12:41:45.280Z,17.50
2018-09-03T12:44:14.400Z,14.67
2018-09-03T12:46:43.358Z,15.17
2018-09-03T12:49:11.733Z,16.10
2018-09-03T12:51:40.199Z,16.30
2018-09-03T12:54:08.692Z,14.35
2018-09-03T12:56:37.100Z,15.97
2018-09-03T12:59:05.728Z,15.40
2018-09-03T13:01:34.133Z,15.40
2018-09-03T13:04:02.613Z,14.77
2018-09-03T13:06:31.060Z,15.50
2018-09-03T13:08:59.531Z,16.07
2018-09-03T13:11:28.022Z,16.33
2018-09-03T13:13:56.372Z,14.55
2018-09-03T13:16:24.884Z,14.03
2018-09-03T13:18:53.334Z,14.43
2018-09-03T13:21:21.776Z,13.00
2018-09-03T13:23:50.258Z,13.20
2018-09-03T13:26:18.692Z,13.18
2018-09-03T13:28:47.112Z,12.07
2018-09-03T13:31:15.531Z,12.93
2018-09-03T13:33:44.057Z,14.17
2018-09-03T13:36:12.513Z,12.00
2018-09-03T13:38:40.994Z,13.03
2018-09-03T13:41:09.445Z,12.90
2018-09-03T13:43:37.992Z,12.00
2018-09-03T13:46:06.576Z,12.30
2018-09-03T13:48:35.259Z,12.00
2018-09-03T13:51:03.725Z,11.87
2018-09-03T13:53:32.089Z,13.10
2018-09-03T13:56:00.957Z,12.15
2018-09-03T13:58:29.357Z,12.50
2018-09-03T14:00:57.802Z,12.23
2018-09-03T14:03:26.244Z,12.57
2018-09-03T14:05:54.664Z,12.63
2018-09-03T14:08:23.074Z,12.83
2018-09-03T14:10:51.483Z,12.50
2018-09-03T14:13:19.965Z,11.70
2018-09-03T14:15:48.392Z,12.20
2018-09-03T14:18:16.762Z,10.80
2018-09-03T14:20:45.216Z,11.37
2018-09-03T14:23:13.646Z,10.77
2018-09-03T14:25:42.651Z,10.43
2018-09-03T14:28:11.116Z,12.13
2018-09-03T14:30:39.569Z,11.23
2018-09-03T14:33:08.058Z,10.80
2018-09-03T14:35:36.501Z,11.08
2018-09-03T14:38:04.961Z,9.97
2018-09-03T14:40:33.348Z,11.57
2018-09-03T14:43:01.882Z,12.50
2018-09-03T14:45:30.204Z,11.65
2018-09-03T14:47:58.696Z,11.10
2018-09-03T14:50:27.133Z,11.47
2018-09-03T14:52:55.592Z,10.77
2018-09-03T14:55:24.436Z,11.30
2018-09-03T14:57:52.862Z,10.83
2018-09-03T15:00:21.357Z,10.80
2018-09-03T15:02:49.766Z,11.30
2018-09-03T15:05:18.708Z,11.63
2018-09-03T15:07:47.163Z,11.30
2018-09-03T15:10:15.569Z,12.13
2018-09-03T15:12:44.008Z,11.53
2018-09-03T15:15:12.539Z,11.07
2018-09-03T15:17:40.967Z,12.10
2018-09-03T15:20:09.458Z,10.70
2018-09-03T15:22:37.912Z,10.63
2018-09-03T15:25:06.420Z,11.30
2018-09-03T15:27:34.837Z,11.60
2018-09-03T15:30:03.365Z,11.40
2018-09-03T15:32:31.780Z,11.83
2018-09-03T15:35:00.201Z,12.80
2018-09-03T15:37:28.955Z,10.47
2018-09-03T15:39:57.783Z,12.37
2018-09-03T15:42:26.607Z,11.13
2018-09-03T15:44:55.009Z,11.57
2018-09-03T15:47:23.628Z,11.00
2018-09-03T15:49:52.229Z,10.80
2018-09-03T15:52:20.601Z,11.00
2018-09-03T15:54:49.094Z,11.20
2018-09-03T15:57:17.544Z,11.60
2018-09-03T15:59:46.024Z,11.70
2018-09-03T16:02:14.413Z,10.72
2018-09-03T16:04:42.994Z,11.53
2018-09-03T16:07:11.421Z,10.73
2018-09-03T16:09:39.922Z,10.17
2018-09-03T16:12:08.393Z,10.47
2018-09-03T16:14:36.833Z,9.43
2018-09-03T16:17:05.451Z,9.50
2018-09-03T16:19:33.862Z,8.80
2018-09-03T16:22:02.258Z,8.93
2018-09-03T16:24:30.628Z,9.70
2018-09-03T16:26:59.091Z,10.80
2018-09-03T16:29:27.508Z,11.07
2018-09-03T16:31:56.041Z,10.43
2018-09-03T16:34:27.988Z,9.63
2018-09-03T16:36:56.371Z,11.63
2018-09-03T16:39:24.852Z,11.33
2018-09-03T16:41:53.345Z,10.90
2018-09-03T16:44:21.668Z,10.57
2018-09-03T16:46:50.086Z,11.10
2018-09-03T16:49:18.501Z,11.23
2018-09-03T16:51:47.222Z,11.63
2018-09-03T16:54:15.657Z,10.50
2018-09-03T16:56:44.050Z,10.20
2018-09-03T16:59:12.519Z,11.47
2018-09-03T17:01:40.945Z,10.73
2018-09-03T17:04:09.473Z,9.85
2018-09-03T17:06:37.892Z,10.33
2018-09-03T17:09:07.154Z,10.50
2018-09-03T17:11:35.600Z,10.43
2018-09-03T17:14:04.109Z,10.28
2018-09-03T17:16:32.592Z,10.77
2018-09-03T17:19:01.112Z,10.00
2018-09-03T17:21:29.586Z,11.20
2018-09-03T17:23:58.081Z,9.60
2018-09-03T17:26:26.492Z,10.20
2018-09-03T17:28:55.199Z,9.50
2018-09-03T17:31:23.560Z,10.35
2018-09-03T17:33:52.098Z,10.17
2018-09-03T17:36:20.545Z,10.30
2018-09-03T17:38:48.978Z,9.57
2018-09-03T17:41:17.594Z,10.63
2018-09-03T17:43:46.252Z,9.50
2018-09-03T17:46:14.733Z,10.23
2018-09-03T17:48:43.258Z,8.75
2018-09-03T17:51:12.804Z,10.57
2018-09-03T17:53:41.474Z,9.50
2018-09-03T17:56:10.123Z,11.30
2018-09-03T17:58:38.667Z,12.27
2018-09-03T18:01:07.126Z,11.57
2018-09-03T18:03:36.495Z,10.73
2018-09-03T18:06:04.976Z,11.00
2018-09-03T18:08:33.497Z,11.93
2018-09-03T18:11:01.933Z,11.23
2018-09-03T18:13:30.500Z,13.17
2018-09-03T18:15:59.325Z,13.07
2018-09-03T18:18:28.176Z,12.97
2018-09-03T18:20:56.721Z,14.07
2018-09-03T18:23:25.467Z,14.03
2018-09-03T18:25:53.891Z,13.33
2018-09-03T18:28:22.422Z,14.00
2018-09-03T18:30:50.957Z,13.83
2018-09-03T18:33:19.407Z,13.30
2018-09-03T18:35:48.640Z,12.80
2018-09-03T18:38:17.123Z,13.10
2018-09-03T18:40:45.680Z,12.70
2018-09-03T18:43:14.267Z,14.20
2018-09-03T18:45:42.926Z,14.13
2018-09-03T18:48:11.955Z,14.43
2018-09-03T18:50:40.432Z,14.73
2018-09-03T18:53:10.025Z,15.08
2018-09-03T18:55:38.892Z,14.67
2018-09-03T18:58:07.859Z,14.98
2018-09-03T19:00:36.692Z,13.80
2018-09-03T19:03:05.479Z,15.40
2018-09-03T19:05:34.286Z,14.73
2018-09-03T19:08:03.161Z,15.90
2018-09-03T19:10:31.764Z,13.88
2018-09-03T19:13:00.621Z,16.63
2018-09-03T19:15:30.124Z,15.13
2018-09-03T19:17:59.158Z,17.20
2018-09-03T19:20:28.830Z,17.60
2018-09-03T19:22:57.281Z,18.27
2018-09-03T19:25:25.758Z,17.15
2018-09-03T19:27:54.275Z,16.17
2018-09-03T19:30:23.036Z,15.98
2018-09-03T19:32:51.560Z,15.37
2018-09-03T19:35:20.326Z,16.37
2018-09-03T19:37:48.806Z,16.67
2018-09-03T19:40:17.484Z,17.27
2018-09-03T19:42:45.856Z,15.93
2018-09-03T19:45:14.464Z,17.70
2018-09-03T19:47:42.979Z,16.50
2018-09-03T19:50:11.480Z,15.77
2018-09-03T19:52:39.920Z,15.88
2018-09-03T19:55:08.388Z,17.40
2018-09-03T19:57:36.893Z,16.87
2018-09-03T20:00:05.437Z,16.85
2018-09-03T20:02:33.895Z,17.37
2018-09-03T20:05:02.392Z,19.47
2018-09-03T20:07:31.022Z,19.37
2018-09-03T20:09:59.542Z,19.73
2018-09-03T20:12:28.042Z,22.87
2018-09-03T20:14:56.476Z,20.30
2018-09-03T20:17:25.082Z,20.37
2018-09-03T20:19:53.930Z,21.67
2018-09-03T20:22:22.364Z,19.17
2018-09-03T20:24:50.856Z,20.50
2018-09-03T20:27:19.339Z,18.82
2018-09-03T20:29:47.926Z,20.20
2018-09-03T20:32:16.344Z,22.53
2018-09-03T20:34:45.736Z,22.65
2018-09-03T20:37:14.278Z,21.30
2018-09-03T20:39:48.330Z,19.87
2018-09-03T20:42:17.192Z,21.43
2018-09-03T20:44:49.925Z,21.13
2018-09-03T20:47:21.720Z,22.20
2018-09-03T20:49:50.121Z,21.57
2018-09-03T20:52:18.622Z,21.70
2018-09-03T20:54:47.735Z,22.70
2018-09-03T20:57:17.151Z,21.63
2018-09-03T20:59:46.471Z,23.17
2018-09-03T21:02:14.996Z,24.50
2018-09-03T21:04:43.436Z,25.17
2018-09-03T21:07:12.267Z,22.80
2018-09-03T21:09:41.060Z,22.80
2018-09-03T21:12:09.504Z,25.13
2018-09-03T21:14:45.714Z,22.50
2018-09-03T21:17:15.313Z,26.37
2018-09-03T21:19:43.690Z,24.90
2018-09-03T21:22:12.197Z,26.30
2018-09-03T21:24:40.636Z,25.00
2018-09-03T21:27:09.081Z,26.57
2018-09-03T21:29:37.456Z,25.30
2018-09-03T21:32:05.892Z,26.23
2018-09-03T21:34:34.403Z,23.47
2018-09-03T21:37:02.830Z,23.97
2018-09-03T21:39:31.214Z,25.77
2018-09-03T21:41:59.720Z,26.10
2018-09-03T21:44:28.233Z,24.73
2018-09-03T21:46:56.737Z,25.17
2018-09-03T21:49:25.241Z,24.73
2018-09-03T21:51:53.753Z,29.07
2018-09-03T22:02:42.448Z,27.17
2018-09-03T22:05:10.871Z,28.53
2018-09-03T22:07:39.356Z,27.77
2018-09-03T22:10:07.862Z,28.40
2018-09-03T22:12:36.282Z,29.33
2018-09-03T22:15:04.749Z,29.97
2018-09-03T22:17:33.135Z,28.90
2018-09-03T22:20:01.545Z,29.40
2018-09-03T22:22:29.950Z,29.33
2018-09-03T22:24:58.303Z,30.20
2018-09-03T22:27:26.735Z,30.23
2018-09-03T22:29:55.152Z,29.30
2018-09-03T22:32:23.532Z,29.23
2018-09-03T22:34:51.923Z,29.27
2018-09-03T22:37:20.372Z,29.93
2018-09-03T22:39:48.864Z,29.50
2018-09-03T22:42:17.504Z,29.93
2018-09-03T22:44:45.909Z,32.27
2018-09-03T22:47:14.318Z,30.97
2018-09-03T22:49:43.593Z,31.25
2018-09-03T22:52:12.533Z,31.52
2018-09-03T22:54:41.622Z,30.33
2018-09-03T22:57:10.308Z,30.37
2018-09-03T23:02:21.397Z,32.20
2018-09-03T23:04:49.818Z,32.43
2018-09-03T23:07:18.314Z,33.03
2018-09-03T23:09:46.701Z,31.17
2018-09-03T23:12:16.979Z,34.03
2018-09-03T23:14:45.321Z,32.37
2018-09-03T23:17:13.793Z,32.73
2018-09-03T23:19:42.174Z,32.70
2018-09-03T23:22:10.585Z,33.88
2018-09-03T23:24:38.981Z,33.33
2018-09-03T23:27:08.367Z,33.07
2018-09-03T23:29:36.797Z,30.43
2018-09-03T23:32:05.257Z,32.40
2018-09-03T23:34:33.679Z,30.80
2018-09-03T23:37:02.079Z,33.50
2018-09-03T23:39:30.465Z,32.17
2018-09-03T23:41:59.001Z,32.77
2018-09-03T23:44:27.328Z,33.17
2018-09-03T23:46:55.702Z,34.53
2018-09-03T23:49:24.124Z,34.73
2018-09-03T23:51:52.547Z,33.07
2018-09-03T23:54:20.939Z,30.87
2018-09-03T23:56:49.344Z,34.17
2018-09-03T23:59:17.772Z,32.30
